Time;durP1;ratioP1;P1;durP2;ratioP2;P2;SDS_P1;SDS_P2;PMS_P1;PMS_P2;Temp;Humidity;BMP_temperature;BMP_pressure;BME280_temperature;BME280_humidity;BME280_pressure;Samples;Min_cycle;Max_cycle;Signal;HPM_P1;HPM_P2
2023/06/26 00:01:44;;;;;;;8.43;5.20;;;18.20;99.90;;;17.32;100.00;97572.00;4988890;28;20050;-85
2023/06/26 00:04:14;;;;;;;9.73;4.93;;;18.10;99.90;;;17.32;100.00;97567.59;4988165;28;20156;-85
2023/06/26 00:06:43;;;;;;;9.02;6.28;;;18.10;99.90;;;17.17;100.00;97573.91;4988715;28;20048;-86
2023/06/26 00:09:12;;;;;;;8.23;4.55;;;18.10;99.90;;;17.24;100.00;97566.44;4985900;28;20081;-85
2023/06/26 00:11:39;;;;;;;7.47;5.10;;;18.10;99.90;;;17.13;100.00;97560.19;4984958;28;20058;-85
2023/06/26 00:14:06;;;;;;;7.72;5.03;;;18.10;99.90;;;17.14;100.00;97561.84;4973449;28;20538;-85
2023/06/26 00:16:33;;;;;;;9.98;5.40;;;18.00;99.90;;;17.06;100.00;97553.69;4988307;28;20412;-85
2023/06/26 00:19:00;;;;;;;8.02;5.28;;;18.00;99.90;;;17.00;100.00;97564.59;4988237;28;20061;-86
2023/06/26 00:21:28;;;;;;;10.38;5.65;;;17.80;99.90;;;16.82;100.00;97561.44;4972408;28;20046;-85
2023/06/26 00:23:55;;;;;;;8.65;5.90;;;17.70;99.90;;;16.73;100.00;97557.63;4972905;28;20058;-85
2023/06/26 00:26:23;;;;;;;8.90;5.55;;;17.70;99.90;;;16.69;100.00;97555.31;4973126;28;20047;-85
2023/06/26 00:28:51;;;;;;;9.82;5.55;;;17.70;99.90;;;16.75;100.00;97554.09;4988251;28;20077;-85
2023/06/26 00:31:18;;;;;;;7.80;5.60;;;17.60;99.90;;;16.65;100.00;97551.22;4989085;28;20140;-85
2023/06/26 00:33:46;;;;;;;7.45;5.43;;;17.50;99.90;;;16.59;100.00;97555.13;4982870;28;20058;-85
2023/06/26 00:36:14;;;;;;;8.48;5.18;;;17.40;99.90;;;16.61;100.00;97550.63;4981392;28;20096;-85
2023/06/26 00:38:41;;;;;;;8.07;5.13;;;17.30;99.90;;;16.55;100.00;97548.41;4985317;28;20081;-85
2023/06/26 00:41:12;;;;;;;9.45;5.95;;;17.30;99.90;;;16.46;100.00;97555.09;4982816;28;20057;-85
2023/06/26 00:43:40;;;;;;;9.05;6.90;;;17.30;99.90;;;16.39;100.00;97547.75;4985427;28;20451;-85
2023/06/26 00:46:12;;;;;;;9.48;5.93;;;17.20;99.90;;;16.32;100.00;97549.94;4984864;28;20058;-85
2023/06/26 00:48:47;;;;;;;8.03;5.20;;;17.20;99.90;;;16.32;100.00;97552.56;4984591;28;20062;-85
2023/06/26 00:51:15;;;;;;;9.68;6.13;;;17.10;99.90;;;16.21;100.00;97548.00;4982894;28;20333;-86
2023/06/26 00:53:43;;;;;;;8.98;5.85;;;17.10;99.90;;;16.31;100.00;97556.97;4983152;28;20066;-84
2023/06/26 00:56:11;;;;;;;9.45;6.00;;;17.00;99.90;;;16.21;100.00;97555.88;4984763;28;20046;-86
2023/06/26 00:58:39;;;;;;;9.05;5.72;;;17.00;99.90;;;16.24;100.00;97560.09;4982677;28;20061;-85
2023/06/26 01:01:08;;;;;;;11.55;6.20;;;17.00;99.90;;;16.22;100.00;97557.56;4984193;28;20051;-85
2023/06/26 01:03:39;;;;;;;8.48;5.55;;;16.90;99.90;;;16.23;100.00;97555.78;4986927;28;20046;-85
2023/06/26 01:06:11;;;;;;;7.60;5.55;;;17.00;99.90;;;16.25;100.00;97553.91;4986826;28;20050;-85
2023/06/26 01:08:41;;;;;;;8.23;4.80;;;17.10;99.90;;;16.21;100.00;97553.25;4984933;28;20050;-85
2023/06/26 01:11:09;;;;;;;11.30;5.47;;;17.10;99.90;;;16.26;100.00;97550.34;4970333;28;20042;-85
2023/06/26 01:13:38;;;;;;;10.30;5.30;;;17.00;99.90;;;16.19;100.00;97551.69;4985245;28;20084;-85
2023/06/26 01:16:05;;;;;;;12.50;6.00;;;17.00;99.90;;;16.19;100.00;97541.19;4985155;28;20126;-85
2023/06/26 01:18:34;;;;;;;9.13;6.32;;;17.00;99.90;;;16.17;100.00;97548.31;4986577;28;20073;-86
2023/06/26 01:21:04;;;;;;;8.80;5.53;;;16.90;99.90;;;16.06;100.00;97549.88;4989423;28;20065;-85
2023/06/26 01:23:53;;;;;;;8.27;5.95;;;16.90;99.90;;;15.94;100.00;97548.03;4976445;28;20046;-86
2023/06/26 01:26:24;;;;;;;13.75;6.28;;;16.80;99.90;;;16.03;100.00;97542.22;4989945;28;20053;-86
2023/06/26 01:28:56;;;;;;;10.35;5.78;;;16.70;99.90;;;15.84;100.00;97550.41;4992082;28;20114;-85
2023/06/26 01:31:24;;;;;;;11.95;6.72;;;16.70;99.90;;;15.82;100.00;97544.44;5005727;28;20065;-85
2023/06/26 01:33:51;;;;;;;13.48;6.28;;;16.60;99.90;;;15.77;100.00;97558.78;4977175;28;20058;-86
2023/06/26 01:36:19;;;;;;;7.53;5.30;;;16.60;99.90;;;15.80;100.00;97555.94;4962827;28;20062;-86
2023/06/26 01:38:46;;;;;;;8.10;5.85;;;16.60;99.90;;;15.89;100.00;97550.13;4987709;28;20050;-85
2023/06/26 01:41:13;;;;;;;9.32;5.75;;;16.60;99.90;;;15.88;100.00;97541.44;4988326;28;20475;-85
2023/06/26 01:43:55;;;;;;;9.02;5.88;;;16.60;99.90;;;15.94;100.00;97539.34;4990055;28;20101;-85
2023/06/26 01:46:33;;;;;;;7.32;4.90;;;16.70;99.90;;;15.95;100.00;97538.44;4992069;28;20078;-85
2023/06/26 01:49:14;;;;;;;9.02;5.85;;;16.80;99.90;;;15.92;100.00;97547.31;4989986;28;20073;-85
2023/06/26 01:51:47;;;;;;;8.55;6.00;;;16.70;99.90;;;15.88;100.00;97544.06;4988978;28;20054;-85
2023/06/26 01:54:19;;;;;;;10.25;6.20;;;16.70;99.90;;;15.87;100.00;97547.63;4987451;28;20082;-85
2023/06/26 01:56:50;;;;;;;10.80;5.55;;;16.70;99.90;;;15.79;100.00;97562.13;4989144;28;20113;-85
2023/06/26 01:59:19;;;;;;;8.23;5.72;;;16.60;99.90;;;15.72;100.00;97553.84;4991800;28;20104;-85
2023/06/26 02:01:47;;;;;;;9.45;5.80;;;16.60;99.90;;;15.73;100.00;97558.13;4984341;28;20113;-86
2023/06/26 02:04:15;;;;;;;9.35;5.85;;;16.50;99.90;;;15.68;100.00;97552.31;4987119;28;20530;-85
2023/06/26 02:06:42;;;;;;;9.20;5.72;;;16.50;99.90;;;15.66;100.00;97554.19;4985573;28;20057;-86
2023/06/26 02:09:09;;;;;;;9.48;6.15;;;16.50;99.90;;;15.62;100.00;97556.16;5001343;28;20058;-85
2023/06/26 02:11:37;;;;;;;8.90;5.68;;;16.50;99.90;;;15.62;100.00;97556.16;4987878;28;20077;-85
2023/06/26 02:14:04;;;;;;;10.43;5.53;;;16.50;99.90;;;15.72;100.00;97553.00;5001498;28;20088;-86
2023/06/26 02:16:31;;;;;;;8.65;6.00;;;16.50;99.90;;;15.63;100.00;97549.16;4984439;28;20100;-87
2023/06/26 02:18:58;;;;;;;8.63;6.00;;;16.50;99.90;;;15.67;100.00;97555.88;4988619;28;20059;-85
2023/06/26 02:21:27;;;;;;;9.30;5.85;;;16.50;99.90;;;15.66;100.00;97556.78;4990170;28;20117;-85
2023/06/26 02:23:54;;;;;;;8.13;5.65;;;16.40;99.90;;;15.60;100.00;97555.44;4989764;28;20077;-86
2023/06/26 02:26:22;;;;;;;8.90;5.80;;;16.40;99.90;;;15.60;100.00;97559.78;4987361;28;20112;-85
2023/06/26 02:28:49;;;;;;;7.88;5.53;;;16.50;99.90;;;15.58;100.00;97562.53;4994388;28;20065;-84
2023/06/26 02:31:16;;;;;;;9.35;6.32;;;16.50;99.90;;;15.57;100.00;97557.38;4992516;28;20050;-85
2023/06/26 02:33:45;;;;;;;8.57;5.53;;;16.50;99.90;;;15.61;100.00;97559.72;4984837;28;20137;-85
2023/06/26 02:36:12;;;;;;;8.43;5.50;;;16.50;99.90;;;15.62;100.00;97557.91;4989108;28;20059;-86
2023/06/26 02:38:40;;;;;;;11.23;6.05;;;16.50;99.90;;;15.69;100.00;97557.47;4990729;28;20062;-85
2023/06/26 02:41:07;;;;;;;9.30;5.65;;;16.60;99.90;;;15.77;100.00;97559.59;5003723;28;20137;-85
2023/06/26 02:43:34;;;;;;;8.57;5.70;;;16.70;99.90;;;15.74;100.00;97557.19;4970661;28;20054;-85
2023/06/26 02:46:02;;;;;;;9.02;5.97;;;16.80;99.90;;;15.73;100.00;97552.06;4986530;28;20050;-85
2023/06/26 02:48:28;;;;;;;8.90;5.70;;;16.70;99.90;;;15.61;100.00;97557.09;4984248;28;20050;-85
2023/06/26 02:50:56;;;;;;;7.80;5.30;;;16.60;99.90;;;15.60;100.00;97552.81;4988099;28;20089;-85
2023/06/26 02:53:23;;;;;;;8.90;6.18;;;16.40;99.90;;;15.41;100.00;97566.19;4988788;28;20050;-85
2023/06/26 02:55:51;;;;;;;8.32;5.95;;;16.40;99.90;;;15.47;100.00;97567.59;4990500;28;20113;-87
2023/06/26 02:58:18;;;;;;;9.93;6.05;;;16.30;99.90;;;15.38;100.00;97568.16;4986517;28;20053;-86
2023/06/26 03:00:46;;;;;;;9.98;5.82;;;16.30;99.90;;;15.53;100.00;97567.22;4990056;28;20042;-85
2023/06/26 03:03:14;;;;;;;7.57;5.43;;;16.30;99.90;;;15.58;100.00;97565.16;4984470;28;20050;-86
2023/06/26 03:05:41;;;;;;;7.97;5.80;;;16.40;99.90;;;15.55;100.00;97567.94;4989367;28;20138;-85
2023/06/26 03:08:08;;;;;;;8.75;5.75;;;16.50;99.90;;;15.56;100.00;97567.00;4986011;28;20058;-86
2023/06/26 03:10:35;;;;;;;9.25;6.03;;;16.50;99.90;;;15.65;100.00;97568.22;4990979;28;20058;-85
2023/06/26 03:13:03;;;;;;;8.15;5.32;;;16.60;99.90;;;15.49;100.00;97555.25;4987431;28;20128;-85
2023/06/26 03:15:30;;;;;;;8.85;5.53;;;16.60;99.90;;;15.50;100.00;97558.72;4989076;28;20057;-85
2023/06/26 03:17:59;;;;;;;9.23;6.30;;;16.60;99.90;;;15.47;100.00;97563.19;4989897;28;20054;-85
2023/06/26 03:20:26;;;;;;;11.43;6.45;;;16.50;99.90;;;15.36;100.00;97565.63;4989598;28;20548;-85
2023/06/26 03:22:53;;;;;;;8.63;5.55;;;16.30;99.90;;;15.20;100.00;97559.69;4986501;28;20526;-85
2023/06/26 03:25:21;;;;;;;8.70;5.75;;;16.20;99.90;;;15.19;100.00;97561.47;4987750;28;20099;-85
2023/06/26 03:27:48;;;;;;;8.07;5.93;;;16.00;99.90;;;15.14;100.00;97565.28;4989978;28;20081;-85
2023/06/26 03:30:15;;;;;;;9.10;5.80;;;16.00;99.90;;;15.06;100.00;97563.97;5002991;28;20081;-85
2023/06/26 03:32:43;;;;;;;11.85;6.63;;;15.90;99.90;;;14.92;100.00;97569.22;4983552;28;20055;-84
2023/06/26 03:35:10;;;;;;;9.85;6.80;;;15.80;99.90;;;14.85;100.00;97573.97;5003494;28;20061;-85
2023/06/26 03:37:37;;;;;;;9.30;6.55;;;15.70;99.90;;;14.90;100.00;97576.28;4990418;28;20473;-85
2023/06/26 03:40:07;;;;;;;8.80;6.20;;;15.70;99.90;;;15.05;100.00;97569.28;4987664;28;20050;-85
2023/06/26 03:42:35;;;;;;;9.85;5.50;;;15.80;99.90;;;15.20;100.00;97570.97;4989452;28;20050;-85
2023/06/26 03:45:02;;;;;;;8.38;5.45;;;15.90;99.90;;;15.24;100.00;97569.03;4985040;28;20124;-85
2023/06/26 03:47:29;;;;;;;9.43;5.72;;;16.00;99.90;;;15.21;100.00;97566.56;4988793;28;20124;-85
2023/06/26 03:49:56;;;;;;;9.73;6.38;;;16.00;99.90;;;15.19;100.00;97568.44;5003028;28;20424;-86
2023/06/26 03:52:23;;;;;;;10.63;7.03;;;16.00;99.90;;;15.08;100.00;97570.91;4980609;28;20132;-85
2023/06/26 03:54:51;;;;;;;8.23;5.82;;;16.00;99.90;;;15.35;100.00;97561.34;4989460;28;20057;-85
2023/06/26 03:57:18;;;;;;;12.27;6.55;;;16.00;99.90;;;15.31;100.00;97567.69;4989678;28;20151;-85
2023/06/26 03:59:46;;;;;;;8.75;5.90;;;16.00;99.90;;;15.31;100.00;97565.09;4985425;28;20106;-85
2023/06/26 04:02:13;;;;;;;9.40;5.97;;;16.00;99.90;;;15.37;100.00;97567.34;4985510;28;20046;-86
2023/06/26 04:04:41;;;;;;;11.52;7.00;;;15.90;99.90;;;15.25;100.00;97574.13;4983856;28;20122;-86
2023/06/26 04:07:09;;;;;;;10.70;6.07;;;15.90;99.90;;;15.15;100.00;97569.59;4986468;28;20046;-85
2023/06/26 04:09:39;;;;;;;10.25;6.35;;;15.80;99.90;;;15.26;100.00;97573.22;4970948;28;20058;-85
2023/06/26 04:12:06;;;;;;;10.32;6.32;;;15.80;99.90;;;15.33;100.00;97570.22;4987420;28;20177;-86
2023/06/26 04:14:36;;;;;;;11.90;5.93;;;15.90;99.90;;;15.22;100.00;97576.94;4981827;28;20058;-85
2023/06/26 04:17:04;;;;;;;10.25;6.40;;;15.90;99.90;;;15.35;100.00;97577.03;4990003;28;20061;-86
2023/06/26 04:19:32;;;;;;;11.98;7.18;;;16.00;99.90;;;15.48;100.00;97575.31;4986882;28;20142;-85
2023/06/26 04:22:00;;;;;;;9.15;6.07;;;16.10;99.90;;;15.62;100.00;97579.72;4987141;28;20118;-85
2023/06/26 04:24:27;;;;;;;9.52;6.00;;;16.20;99.90;;;15.84;100.00;97570.53;4968564;28;20102;-85
2023/06/26 04:26:57;;;;;;;8.77;5.97;;;16.20;99.90;;;15.85;100.00;97573.06;4987463;28;20065;-86
2023/06/26 04:29:26;;;;;;;8.80;6.03;;;16.30;99.90;;;15.82;100.00;97573.22;4987754;28;20133;-85
2023/06/26 04:31:57;;;;;;;8.70;6.13;;;16.40;99.90;;;16.08;100.00;97558.47;4987824;28;20606;-86
2023/06/26 04:34:32;;;;;;;9.00;6.43;;;16.60;99.90;;;16.19;100.00;97557.75;4986323;28;20058;-86
2023/06/26 04:37:03;;;;;;;9.40;6.25;;;16.70;99.90;;;16.54;100.00;97554.59;4990059;28;20062;-86
2023/06/26 04:39:31;;;;;;;10.35;6.20;;;16.90;99.90;;;16.31;100.00;97551.72;4989401;28;20181;-85
2023/06/26 04:41:58;;;;;;;7.85;6.03;;;17.10;99.90;;;16.57;100.00;97554.38;4985574;28;20054;-86
2023/06/26 04:44:25;;;;;;;10.38;6.47;;;17.20;99.90;;;16.59;100.00;97549.88;4989060;28;20138;-86
2023/06/26 04:46:54;;;;;;;9.75;6.78;;;17.30;99.90;;;16.89;100.00;97539.09;4987300;28;20464;-87
2023/06/26 04:49:21;;;;;;;10.18;6.00;;;17.40;99.90;;;17.10;100.00;97539.41;4987641;28;20496;-86
2023/06/26 04:51:50;;;;;;;11.93;6.88;;;17.60;99.90;;;17.16;100.00;97537.31;4990786;28;20086;-85
2023/06/26 04:54:18;;;;;;;6.93;4.90;;;17.70;99.90;;;17.46;100.00;97531.69;4991555;28;20054;-86
2023/06/26 04:56:47;;;;;;;9.63;6.68;;;17.90;99.90;;;17.76;100.00;97529.47;4989616;28;20165;-86
2023/06/26 04:59:19;;;;;;;7.93;6.03;;;18.20;99.90;;;17.97;100.00;97532.38;4990023;28;20491;-86
2023/06/26 05:01:47;;;;;;;7.25;5.43;;;18.50;99.90;;;18.22;100.00;97532.31;4990458;28;20050;-85
2023/06/26 05:04:16;;;;;;;9.15;6.65;;;18.70;99.90;;;18.46;100.00;97525.25;4989060;28;20046;-85
2023/06/26 05:06:43;;;;;;;8.02;5.80;;;18.90;99.90;;;18.72;100.00;97531.13;4978711;28;20556;-86
2023/06/26 05:09:16;;;;;;;11.02;6.47;;;19.00;99.90;;;18.85;100.00;97527.63;5009046;28;20046;-84
2023/06/26 05:11:46;;;;;;;8.55;5.43;;;19.20;99.90;;;19.00;100.00;97532.53;5008160;28;20046;-86
2023/06/26 05:14:15;;;;;;;8.00;6.00;;;19.40;99.90;;;19.18;100.00;97524.13;5012115;28;20130;-87
2023/06/26 05:16:46;;;;;;;11.63;6.15;;;19.50;99.90;;;19.27;100.00;97517.31;4999339;28;20057;-84
2023/06/26 05:19:15;;;;;;;8.10;5.72;;;19.70;99.90;;;19.65;100.00;97522.16;4999416;28;20571;-85
2023/06/26 05:21:43;;;;;;;8.65;5.25;;;19.90;99.90;;;19.84;100.00;97519.75;4996981;28;20050;-85
2023/06/26 05:24:14;;;;;;;7.65;5.47;;;20.00;99.90;;;20.02;100.00;97517.41;4977013;28;20819;-86
2023/06/26 05:26:42;;;;;;;7.75;5.72;;;20.20;99.90;;;20.05;100.00;97521.59;4991063;28;20054;-85
2023/06/26 05:29:10;;;;;;;6.57;5.07;;;20.30;99.90;;;20.08;100.00;97525.78;4992571;28;20104;-85
2023/06/26 05:31:41;;;;;;;8.68;5.47;;;20.40;99.90;;;20.42;100.00;97526.47;4995920;28;20054;-86
2023/06/26 05:34:10;;;;;;;10.13;5.18;;;20.60;99.90;;;20.37;100.00;97521.56;4988835;28;20125;-86
2023/06/26 05:36:39;;;;;;;7.38;5.00;;;20.60;99.90;;;20.44;100.00;97520.09;4990936;28;20047;-86
2023/06/26 05:39:08;;;;;;;6.78;5.05;;;20.70;99.90;;;20.34;100.00;97524.44;4994160;28;20069;-87
2023/06/26 05:41:37;;;;;;;7.43;5.47;;;20.80;99.90;;;20.41;100.00;97528.25;4996176;28;20128;-88
2023/06/26 05:44:04;;;;;;;7.25;5.43;;;20.70;99.90;;;20.23;100.00;97525.34;4975915;28;20520;-88
2023/06/26 05:46:32;;;;;;;6.70;5.18;;;20.80;99.90;;;20.44;100.00;97522.72;5011064;28;20062;-87
2023/06/26 05:49:01;;;;;;;7.30;5.38;;;20.70;99.90;;;20.14;100.00;97525.25;4992175;28;20050;-88
2023/06/26 05:51:29;;;;;;;6.22;5.00;;;20.70;99.90;;;20.43;100.00;97533.38;4976435;28;20054;-86
2023/06/26 05:53:57;;;;;;;7.20;5.28;;;20.80;99.90;;;20.43;100.00;97533.38;4994300;28;20138;-87
2023/06/26 05:56:24;;;;;;;7.10;5.88;;;20.80;99.90;;;20.47;100.00;97532.19;4977931;28;20105;-87
2023/06/26 05:58:53;;;;;;;8.80;5.35;;;20.80;99.90;;;20.45;100.00;97528.84;4993195;28;20112;-87
2023/06/26 06:01:21;;;;;;;6.68;5.43;;;20.80;99.90;;;20.55;100.00;97534.16;4996051;28;20052;-87
2023/06/26 06:03:48;;;;;;;7.20;5.65;;;20.90;99.90;;;20.59;100.00;97532.97;4998368;28;20050;-87
2023/06/26 06:06:17;;;;;;;7.63;5.28;;;21.10;99.90;;;20.53;100.00;97531.66;5006976;28;20046;-86
2023/06/26 06:08:45;;;;;;;7.40;5.65;;;21.20;99.90;;;20.79;100.00;97533.94;4995211;28;20062;-87
2023/06/26 06:11:15;;;;;;;6.20;5.03;;;21.20;99.90;;;20.80;100.00;97528.53;4992211;28;20113;-87
2023/06/26 06:13:43;;;;;;;9.52;5.97;;;21.20;99.90;;;20.89;100.00;97526.88;4994058;28;20120;-86
2023/06/26 06:16:10;;;;;;;8.80;5.90;;;21.20;99.90;;;21.05;100.00;97532.56;5010504;28;20093;-87
2023/06/26 06:18:38;;;;;;;11.95;5.00;;;21.30;99.90;;;21.15;100.00;97537.03;4989298;28;20066;-87
2023/06/26 06:21:08;;;;;;;9.40;5.90;;;21.50;99.90;;;21.24;100.00;97550.25;4989113;28;20054;-87
2023/06/26 06:23:35;;;;;;;7.63;5.10;;;21.50;99.90;;;21.34;100.00;97539.72;4991452;28;20065;-87
2023/06/26 06:26:02;;;;;;;7.93;5.50;;;21.50;99.90;;;21.28;100.00;97535.00;4993990;28;20042;-86
2023/06/26 06:28:30;;;;;;;6.20;5.40;;;21.50;99.90;;;21.45;100.00;97537.03;4994671;28;20077;-86
2023/06/26 06:30:57;;;;;;;7.00;5.35;;;21.50;99.90;;;21.28;100.00;97543.75;4994888;28;20062;-87
2023/06/26 06:33:25;;;;;;;7.88;5.85;;;21.60;99.90;;;21.40;100.00;97543.66;4991480;28;20050;-86
2023/06/26 06:35:52;;;;;;;8.25;5.13;;;21.70;99.90;;;21.51;100.00;97543.59;4992892;28;20054;-86
2023/06/26 06:38:19;;;;;;;12.18;6.32;;;21.80;99.90;;;21.61;100.00;97548.88;4990486;28;20149;-86
2023/06/26 06:40:46;;;;;;;6.70;5.25;;;21.80;99.90;;;21.75;100.00;97552.94;4986561;28;20120;-86
2023/06/26 06:43:13;;;;;;;8.57;6.05;;;21.90;99.90;;;21.62;100.00;97558.47;4994117;28;20061;-86
2023/06/26 06:45:41;;;;;;;8.07;5.07;;;22.00;99.90;;;21.58;100.00;97565.03;4984384;28;20050;-87
2023/06/26 06:48:09;;;;;;;9.45;6.35;;;21.90;99.90;;;21.52;100.00;97559.28;4994622;28;20128;-88
2023/06/26 06:50:36;;;;;;;7.38;5.75;;;21.90;99.90;;;21.67;100.00;97566.84;5005151;28;20472;-86
2023/06/26 06:53:04;;;;;;;6.65;5.30;;;21.90;99.90;;;21.87;100.00;97573.84;4976074;28;20054;-86
2023/06/26 06:55:31;;;;;;;7.45;5.63;;;21.90;99.90;;;22.02;100.00;97568.97;4975389;28;20100;-86
2023/06/26 06:57:58;;;;;;;8.23;5.75;;;22.00;99.90;;;21.99;100.00;97557.88;4993240;28;20080;-87
2023/06/26 07:00:26;;;;;;;8.05;5.30;;;22.20;99.90;;;22.09;100.00;97564.81;4972292;28;20105;-87
2023/06/26 07:02:54;;;;;;;7.00;5.90;;;22.20;99.90;;;22.12;100.00;97571.63;4989407;28;20054;-87
2023/06/26 07:05:22;;;;;;;7.68;5.82;;;22.40;99.90;;;22.57;100.00;97565.00;4991983;28;20120;-87
2023/06/26 07:07:51;;;;;;;8.88;6.30;;;22.60;99.90;;;22.69;100.00;97566.50;4976028;28;20046;-87
2023/06/26 07:10:19;;;;;;;7.82;5.88;;;22.90;99.90;;;22.52;100.00;97566.25;4988466;28;20064;-87
2023/06/26 07:12:47;;;;;;;8.65;5.47;;;22.90;99.90;;;22.31;100.00;97576.16;4989466;28;20105;-87
2023/06/26 07:15:14;;;;;;;8.43;5.95;;;22.80;99.90;;;22.40;100.00;97577.09;4988644;28;20050;-87
2023/06/26 07:17:41;;;;;;;9.15;5.03;;;22.50;99.90;;;22.79;100.00;97572.63;4976953;28;20081;-87
2023/06/26 07:20:14;;;;;;;8.10;6.63;;;22.60;99.90;;;22.96;100.00;97577.16;4989748;28;20564;-86
2023/06/26 07:22:44;;;;;;;10.55;6.35;;;22.90;99.90;;;22.66;100.00;97598.53;4990411;28;20065;-86
2023/06/26 07:25:12;;;;;;;8.55;6.00;;;22.90;99.90;;;22.60;100.00;97591.97;4986639;28;20042;-87
2023/06/26 07:27:40;;;;;;;11.32;6.57;;;22.80;99.90;;;22.53;100.00;97580.28;4986493;28;20480;-86
2023/06/26 07:30:10;;;;;;;8.15;5.65;;;22.90;99.90;;;22.64;100.00;97584.63;4974344;28;20085;-87
2023/06/26 07:32:39;;;;;;;8.88;5.90;;;22.90;99.90;;;22.94;100.00;97580.94;4987284;28;20479;-86
2023/06/26 07:35:07;;;;;;;14.55;6.75;;;22.90;99.90;;;22.80;100.00;97573.44;4982506;28;20046;-87
2023/06/26 07:37:34;;;;;;;9.38;6.00;;;23.20;99.90;;;22.77;100.00;97579.88;4988790;28;20066;-87
2023/06/26 07:40:01;;;;;;;10.70;6.53;;;23.40;99.90;;;22.60;100.00;97580.56;4987799;28;20054;-88
2023/06/26 07:42:29;;;;;;;12.40;7.55;;;23.30;99.90;;;22.44;100.00;97589.94;4987488;28;20538;-87
2023/06/26 07:44:56;;;;;;;20.95;6.40;;;23.20;99.90;;;22.80;100.00;97594.63;4972017;28;20403;-88
2023/06/26 07:47:23;;;;;;;10.45;6.40;;;23.20;99.90;;;22.97;100.00;97592.09;4988732;28;20404;-86
2023/06/26 07:49:52;;;;;;;11.55;6.05;;;23.30;99.90;;;23.02;100.00;97599.63;4973127;28;20063;-86
2023/06/26 07:52:19;;;;;;;10.35;6.38;;;23.50;99.90;;;23.23;100.00;97611.84;4987966;28;20166;-86
2023/06/26 07:54:47;;;;;;;7.93;6.22;;;23.50;99.90;;;23.28;100.00;97609.59;4988438;28;20053;-87
2023/06/26 07:57:15;;;;;;;11.90;6.82;;;23.50;99.90;;;23.47;100.00;97617.47;4988496;28;20046;-86
2023/06/26 07:59:42;;;;;;;9.40;6.32;;;23.60;99.90;;;23.45;100.00;97622.06;4990479;28;20042;-86
2023/06/26 08:02:09;;;;;;;8.05;6.50;;;23.80;99.90;;;23.51;100.00;97624.13;4986226;28;20073;-86
2023/06/26 08:04:37;;;;;;;9.15;6.72;;;23.70;99.90;;;23.76;100.00;97606.75;4987677;28;20082;-87
2023/06/26 08:07:05;;;;;;;10.23;5.97;;;24.00;99.90;;;24.19;100.00;97623.78;4987246;28;20655;-86
2023/06/26 08:09:33;;;;;;;11.10;6.35;;;24.00;99.90;;;24.25;100.00;97625.03;4988888;28;20046;-87
2023/06/26 08:12:00;;;;;;;11.30;6.55;;;24.20;99.90;;;24.23;100.00;97615.56;4985811;28;20508;-87
2023/06/26 08:14:28;;;;;;;9.43;6.10;;;24.30;99.90;;;24.26;100.00;97632.00;4991374;28;20476;-87
2023/06/26 08:16:55;;;;;;;11.55;6.40;;;24.20;99.90;;;24.51;100.00;97619.00;4990506;28;20050;-87
2023/06/26 08:19:23;;;;;;;12.88;6.30;;;24.50;99.90;;;24.37;100.00;97623.81;4993615;28;20057;-87
2023/06/26 08:21:51;;;;;;;14.57;6.75;;;24.40;99.90;;;24.42;100.00;97629.50;4994253;28;20046;-88
2023/06/26 08:24:18;;;;;;;10.10;5.78;;;24.40;99.90;;;24.69;100.00;97626.97;4961933;28;20058;-86
2023/06/26 08:26:48;;;;;;;8.90;6.30;;;24.50;99.90;;;25.24;100.00;97634.69;4972096;28;20113;-86
2023/06/26 08:29:15;;;;;;;8.20;5.35;;;24.80;99.90;;;25.43;100.00;97628.31;4989579;28;20077;-86
2023/06/26 08:31:43;;;;;;;8.07;5.63;;;25.00;99.90;;;25.08;100.00;97637.22;4992271;28;20587;-86
2023/06/26 08:34:10;;;;;;;10.43;6.18;;;25.00;99.90;;;25.01;100.00;97647.63;4976627;28;20054;-87
2023/06/26 08:36:38;;;;;;;8.07;5.60;;;24.80;99.90;;;24.18;100.00;97639.88;4992625;28;20414;-85
2023/06/26 08:39:06;;;;;;;8.73;6.10;;;24.60;99.90;;;24.67;100.00;97627.09;4989597;28;20057;-87
2023/06/26 08:41:33;;;;;;;7.38;5.20;;;24.60;99.90;;;24.49;100.00;97640.38;5008627;28;20122;-86
2023/06/26 08:44:00;;;;;;;7.57;4.45;;;24.60;99.90;;;24.35;100.00;97633.75;4990179;28;20416;-86
2023/06/26 08:46:28;;;;;;;8.65;4.90;;;24.40;99.90;;;24.71;100.00;97635.59;4988402;28;20046;-88
2023/06/26 08:49:03;;;;;;;9.85;5.30;;;24.60;99.90;;;24.80;100.00;97640.81;4956522;28;20054;-87
2023/06/26 08:51:36;;;;;;;6.78;4.97;;;24.60;99.90;;;24.72;100.00;97634.59;4974537;28;20069;-88
2023/06/26 08:54:09;;;;;;;8.30;5.47;;;24.60;99.90;;;24.41;100.00;97641.09;4989194;28;20619;-88
2023/06/26 08:56:40;;;;;;;10.15;5.57;;;24.70;99.90;;;24.58;100.00;97635.97;4991623;28;20054;-87
2023/06/26 08:59:10;;;;;;;;;;;24.50;99.90;;;24.30;100.00;97643.97;4987872;28;20058;-87
2023/06/26 09:01:38;;;;;;;7.45;5.07;;;24.20;99.90;;;25.04;100.00;97637.53;4991529;28;19937;-86
2023/06/26 09:04:06;;;;;;;8.45;5.00;;;24.80;99.90;;;25.46;100.00;97634.16;4989772;28;20527;-86
2023/06/26 09:06:34;;;;;;;9.43;5.30;;;25.30;99.90;;;26.32;100.00;97636.81;4990471;28;20046;-87
2023/06/26 09:09:01;;;;;;;5.70;4.65;;;25.90;99.90;;;27.02;100.00;97629.22;4991897;28;20054;-86
2023/06/26 09:11:28;;;;;;;5.82;3.90;;;26.40;99.90;;;26.89;100.00;97618.25;4991475;28;20050;-87
2023/06/26 09:13:56;;;;;;;5.65;3.75;;;26.60;99.90;;;26.96;100.00;97637.91;4993393;28;20050;-87
2023/06/26 09:16:27;;;;;;;7.15;4.47;;;27.10;99.90;;;27.09;100.00;97630.22;4991824;28;20046;-87
2023/06/26 09:18:56;;;;;;;5.53;4.25;;;27.50;99.90;;;27.15;100.00;97628.72;4991030;28;20476;-87
2023/06/26 09:21:24;;;;;;;8.82;4.38;;;27.60;99.60;;;27.89;100.00;97625.91;4993324;28;20046;-87
2023/06/26 09:23:54;;;;;;;6.70;4.07;;;28.00;99.50;;;28.42;100.00;97626.09;4987070;28;20116;-88
2023/06/26 09:26:22;;;;;;;8.27;4.53;;;28.30;98.70;;;28.22;100.00;97629.25;4992990;28;20130;-87
2023/06/26 09:28:50;;;;;;;6.00;3.83;;;28.70;98.80;;;28.11;100.00;97633.13;5004597;28;20073;-87
2023/06/26 09:31:17;;;;;;;13.48;4.30;;;28.90;97.60;;;28.52;100.00;97629.41;4991924;28;20108;-87
2023/06/26 09:34:05;;;;;;;7.57;4.10;;;29.10;97.10;;;28.57;100.00;97635.03;4990431;28;20489;-87
2023/06/26 09:36:34;;;;;;;7.65;3.97;;;29.50;96.60;;;28.02;100.00;97634.16;4986095;28;20070;-87
2023/06/26 09:39:10;;;;;;;7.38;4.50;;;28.40;95.60;;;27.68;100.00;97643.28;4988056;28;20157;-87
2023/06/26 09:41:42;;;;;;;5.38;3.45;;;28.20;96.20;;;28.39;100.00;97629.94;4985431;28;20527;-87
2023/06/26 09:44:13;;;;;;;7.20;3.75;;;28.80;96.50;;;28.82;100.00;97625.00;4973665;28;20046;-88
2023/06/26 09:46:40;;;;;;;12.93;3.70;;;28.90;95.10;;;28.34;100.00;97635.81;4982339;28;20097;-87
2023/06/26 09:49:11;;;;;;;5.18;3.33;;;28.80;94.70;;;28.24;100.00;97661.91;5003752;28;20104;-87
2023/06/26 09:51:41;;;;;;;5.82;3.40;;;28.90;94.20;;;27.66;100.00;97652.47;4988113;28;20929;-87
2023/06/26 09:54:09;;;;;;;6.25;3.35;;;28.60;92.90;;;28.32;100.00;97648.50;4981065;28;20467;-87
2023/06/26 09:56:37;;;;;;;16.23;4.07;;;28.40;93.10;;;26.93;100.00;97654.22;4985894;28;20081;-88
2023/06/26 09:59:05;;;;;;;8.00;3.50;;;28.00;92.40;;;27.61;100.00;97642.31;5002242;28;20046;-87
2023/06/26 10:01:33;;;;;;;6.47;3.55;;;27.90;92.40;;;27.47;100.00;97627.84;4986549;28;20055;-87
2023/06/26 10:04:01;;;;;;;6.05;4.25;;;28.10;92.50;;;27.32;100.00;97669.53;4981019;28;20077;-87
2023/06/26 10:06:46;;;;;;;10.40;4.55;;;27.70;92.20;;;26.98;100.00;97659.03;4986994;28;20112;-87
2023/06/26 10:09:17;;;;;;;7.30;3.90;;;27.40;91.80;;;27.36;100.00;97667.38;4983144;28;20068;-88
2023/06/26 10:11:55;;;;;;;5.95;3.53;;;27.50;91.90;;;27.77;100.00;97652.09;4974216;28;20096;-86
2023/06/26 10:14:26;;;;;;;4.63;3.28;;;28.20;91.30;;;28.13;100.00;97663.13;4984874;28;20050;-87
2023/06/26 10:16:58;;;;;;;6.18;3.58;;;28.80;91.30;;;27.99;100.00;97661.22;4985617;28;20401;-88